createdAt,value
2023-01-13T00:01:08.434Z,100036.72
2023-01-13T00:03:36.357Z,100034.34
2023-01-13T00:06:04.462Z,100028.19
2023-01-13T00:08:32.463Z,100027.63
2023-01-13T00:11:00.380Z,100027.03
2023-01-13T00:13:28.517Z,100035.72
2023-01-13T00:16:02.337Z,100027.31
2023-01-13T00:18:30.178Z,100029.03
2023-01-13T00:21:01.582Z,100021.16
2023-01-13T00:23:30.381Z,100029.59
2023-01-13T00:26:00.715Z,100032.69
2023-01-13T00:28:28.755Z,100017.75
2023-01-13T00:30:58.587Z,100007.69
2023-01-13T00:33:27.837Z,99998.31
2023-01-13T00:35:58.641Z,99999.53
2023-01-13T00:38:26.596Z,100002.00
2023-01-13T00:40:57.802Z,99991.75
2023-01-13T00:43:26.787Z,99985.59
2023-01-13T00:45:54.634Z,99986.88
2023-01-13T00:48:23.561Z,99981.41
2023-01-13T00:51:04.935Z,99971.56
2023-01-13T00:53:38.224Z,99982.81
2023-01-13T00:56:08.167Z,99974.22
2023-01-13T00:58:36.672Z,99971.16
2023-01-13T01:01:09.061Z,99971.56
2023-01-13T01:03:39.764Z,99959.09
2023-01-13T01:06:11.683Z,99960.22
2023-01-13T01:08:39.518Z,99953.00
2023-01-13T01:11:08.926Z,99959.56
2023-01-13T01:13:37.454Z,99962.50
2023-01-13T01:16:07.316Z,99966.72
2023-01-13T01:18:35.464Z,99968.38
2023-01-13T01:21:03.740Z,99968.19
2023-01-13T01:23:33.745Z,99976.59
2023-01-13T01:26:02.432Z,99978.56
2023-01-13T01:28:30.392Z,99978.16
2023-01-13T01:31:02.005Z,99976.88
2023-01-13T01:33:29.893Z,99973.06
2023-01-13T01:35:57.839Z,99980.44
2023-01-13T01:38:25.853Z,99986.13
2023-01-13T01:40:55.084Z,99984.13
2023-01-13T01:43:43.736Z,99991.09
2023-01-13T01:46:11.429Z,99983.31
2023-01-13T01:48:41.579Z,99985.09
2023-01-13T01:51:12.498Z,99971.44
2023-01-13T01:53:41.873Z,99984.06
2023-01-13T01:56:12.327Z,99964.03
2023-01-13T01:58:47.532Z,99968.50
2023-01-13T02:01:15.499Z,99972.25
2023-01-13T02:03:46.132Z,99960.03
2023-01-13T02:06:14.545Z,99971.66
2023-01-13T02:08:42.524Z,99966.06
2023-01-13T02:11:43.716Z,99964.97
2023-01-13T02:14:11.321Z,99963.72
2023-01-13T02:16:40.499Z,99959.25
2023-01-13T02:19:17.373Z,99954.13
2023-01-13T02:22:04.044Z,99948.19
2023-01-13T02:24:56.104Z,99957.59
2023-01-13T02:27:45.215Z,99949.22
2023-01-13T02:30:39.929Z,99947.84
2023-01-13T02:33:15.538Z,99947.47
2023-01-13T02:35:50.439Z,99953.56
2023-01-13T02:38:20.644Z,99943.53
2023-01-13T02:40:55.828Z,99936.81
2023-01-13T02:43:45.997Z,99923.53
2023-01-13T02:46:19.194Z,99930.09
2023-01-13T02:48:47.720Z,99921.25
2023-01-13T02:51:17.936Z,99913.50
2023-01-13T02:53:49.047Z,99909.41
2023-01-13T02:56:17.607Z,99909.66
2023-01-13T02:58:46.579Z,99920.09
2023-01-13T03:01:15.542Z,99921.72
2023-01-13T03:03:43.857Z,99917.66
2023-01-13T03:06:29.950Z,99915.19
2023-01-13T03:09:05.040Z,99922.31
2023-01-13T03:11:37.361Z,99902.94
2023-01-13T03:14:13.168Z,99907.41
2023-01-13T03:17:00.527Z,99897.78
2023-01-13T03:19:34.731Z,99892.69
2023-01-13T03:22:08.395Z,99902.94
2023-01-13T03:24:39.598Z,99901.94
2023-01-13T03:27:11.113Z,99895.59
2023-01-13T03:29:42.461Z,99894.34
2023-01-13T03:32:14.905Z,99891.75
2023-01-13T03:34:46.813Z,99886.81
2023-01-13T03:37:16.233Z,99886.97
2023-01-13T03:39:47.100Z,99876.81
2023-01-13T03:42:18.001Z,99881.25
2023-01-13T03:44:47.058Z,99882.47
2023-01-13T03:47:20.456Z,99884.56
2023-01-13T03:49:54.548Z,99877.00
2023-01-13T03:52:25.961Z,99882.91
2023-01-13T03:54:57.457Z,99871.09
2023-01-13T03:57:29.246Z,99878.84
2023-01-13T04:00:00.088Z,99876.81
2023-01-13T04:02:37.529Z,99869.44
2023-01-13T04:05:08.696Z,99873.97
2023-01-13T04:07:45.040Z,99877.66
2023-01-13T04:10:13.431Z,99874.34
2023-01-13T04:13:04.047Z,99871.09
2023-01-13T04:15:35.010Z,99867.59
2023-01-13T04:18:11.070Z,99865.38
2023-01-13T04:20:39.743Z,99855.13
2023-01-13T04:23:07.403Z,99850.03
2023-01-13T04:25:36.206Z,99860.06
2023-01-13T04:28:03.806Z,99847.16
2023-01-13T04:30:31.352Z,99842.03
2023-01-13T04:32:58.828Z,99843.28
2023-01-13T04:35:28.270Z,99844.91
2023-01-13T04:37:55.797Z,99834.25
2023-01-13T04:40:23.740Z,99848.78
2023-01-13T04:42:51.218Z,99850.28
2023-01-13T04:45:18.701Z,99844.97
2023-01-13T04:47:46.529Z,99845.53
2023-01-13T04:50:13.987Z,99840.00
2023-01-13T04:52:42.760Z,99829.00
2023-01-13T04:55:10.773Z,99824.72
2023-01-13T04:57:38.588Z,99829.00
2023-01-13T05:00:07.555Z,99833.09
2023-01-13T05:02:35.017Z,99830.19
2023-01-13T05:05:02.627Z,99844.91
2023-01-13T05:07:30.205Z,99857.31
2023-01-13T05:09:59.011Z,99845.00
2023-01-13T05:12:44.012Z,99847.81
2023-01-13T05:15:30.391Z,99852.53
2023-01-13T05:17:57.916Z,99868.50
2023-01-13T05:20:25.758Z,99870.66
2023-01-13T05:23:10.955Z,99869.25
2023-01-13T05:25:44.004Z,99927.88
2023-01-13T05:28:12.027Z,99941.19
2023-01-13T05:30:42.253Z,99944.00
2023-01-13T05:33:10.114Z,99942.25
2023-01-13T05:35:39.299Z,99946.44
2023-01-13T05:38:06.885Z,99941.38
2023-01-13T05:40:52.181Z,99946.94
2023-01-13T05:43:24.383Z,99961.13
2023-01-13T05:45:54.296Z,99973.97
2023-01-13T05:48:24.569Z,99988.50
2023-01-13T05:50:53.766Z,99993.72
2023-01-13T05:53:21.702Z,100008.31
2023-01-13T05:55:49.522Z,99988.53
2023-01-13T05:58:18.111Z,99990.31
2023-01-13T06:00:47.167Z,99986.59
2023-01-13T06:03:15.891Z,99985.31
2023-01-13T06:05:43.799Z,99975.72
2023-01-13T06:08:11.247Z,99982.53
2023-01-13T06:10:38.789Z,99984.06
2023-01-13T06:13:06.725Z,99980.84
2023-01-13T06:15:34.246Z,99975.47
2023-01-13T06:18:04.884Z,99977.59
2023-01-13T06:20:32.763Z,99978.31
2023-01-13T06:23:00.553Z,99974.66
2023-01-13T06:25:35.556Z,99985.59
2023-01-13T06:28:03.041Z,99990.91
2023-01-13T06:30:33.168Z,100004.53
2023-01-13T06:33:04.031Z,99996.50
2023-01-13T06:35:34.191Z,100020.91
2023-01-13T06:38:02.972Z,99985.06
2023-01-13T06:40:30.896Z,99979.41
2023-01-13T06:43:17.198Z,99967.16
2023-01-13T06:45:47.999Z,99971.25
2023-01-13T06:48:17.544Z,99949.84
2023-01-13T06:50:45.462Z,99933.19
2023-01-13T06:53:12.929Z,99959.00
2023-01-13T06:55:40.387Z,99969.44
2023-01-13T06:58:07.853Z,99978.13
2023-01-13T07:00:37.104Z,99983.88
2023-01-13T07:03:09.298Z,99986.53
2023-01-13T07:05:38.257Z,99980.50
2023-01-13T07:08:06.302Z,100000.44
2023-01-13T07:10:34.409Z,99982.59
2023-01-13T07:13:20.167Z,99985.31
2023-01-13T07:15:55.796Z,99984.25
2023-01-13T07:18:23.288Z,99986.34
2023-01-13T07:20:57.024Z,99985.63
2023-01-13T07:23:25.022Z,99992.38
2023-01-13T07:25:52.492Z,100003.25
2023-01-13T07:28:19.950Z,100012.00
2023-01-13T07:30:47.407Z,100012.19
2023-01-13T07:33:16.161Z,100009.34
2023-01-13T07:35:43.648Z,100006.50
2023-01-13T07:38:12.523Z,99999.47
2023-01-13T07:40:40.727Z,100008.41
2023-01-13T07:43:26.013Z,100013.78
2023-01-13T07:45:56.896Z,100020.19
2023-01-13T07:48:24.438Z,100026.50
2023-01-13T07:50:52.009Z,100043.94
2023-01-13T07:53:21.280Z,100046.44
2023-01-13T07:55:49.768Z,100033.16
2023-01-13T07:58:17.363Z,100028.13
2023-01-13T08:00:44.962Z,100036.66
2023-01-13T08:03:12.497Z,100047.88
2023-01-13T08:05:40.044Z,100057.78
2023-01-13T08:08:07.694Z,100053.69
2023-01-13T08:10:39.438Z,100057.38
2023-01-13T08:13:21.265Z,100062.72
2023-01-13T08:15:49.986Z,100063.53
2023-01-13T08:18:20.816Z,100063.00
2023-01-13T08:20:49.493Z,100070.94
2023-01-13T08:23:17.123Z,100060.50
2023-01-13T08:25:46.352Z,100069.03
2023-01-13T08:28:14.272Z,100075.59
2023-01-13T08:30:42.273Z,100071.59
2023-01-13T08:33:11.745Z,100073.69
2023-01-13T08:35:40.159Z,100078.81
2023-01-13T08:38:08.033Z,100082.97
2023-01-13T08:40:35.606Z,100084.97
2023-01-13T08:43:04.783Z,100086.16
2023-01-13T08:45:32.566Z,100093.38
2023-01-13T08:48:00.128Z,100099.97
2023-01-13T08:50:27.710Z,100085.09
2023-01-13T08:52:55.264Z,100094.97
2023-01-13T08:55:24.071Z,100086.63
2023-01-13T08:57:53.085Z,100098.59
2023-01-13T09:00:23.732Z,100093.84
2023-01-13T09:02:51.249Z,100082.50
2023-01-13T09:05:18.911Z,100083.91
2023-01-13T09:07:46.392Z,100091.84
2023-01-13T09:10:13.839Z,100103.09
2023-01-13T09:12:58.969Z,100104.81
2023-01-13T09:15:27.821Z,100115.22
2023-01-13T09:17:55.525Z,100110.88
2023-01-13T09:20:23.074Z,100110.75
2023-01-13T09:22:50.563Z,100110.56
2023-01-13T09:25:18.093Z,100121.28
2023-01-13T09:27:45.555Z,100125.69
2023-01-13T09:30:13.599Z,100132.84
2023-01-13T09:32:42.379Z,100139.59
2023-01-13T09:35:09.643Z,100144.97
2023-01-13T09:37:39.155Z,100150.00
2023-01-13T09:40:09.163Z,100159.25
2023-01-13T09:43:01.960Z,100157.97
2023-01-13T09:45:32.519Z,100157.41
2023-01-13T09:48:05.235Z,100168.22
2023-01-13T09:50:41.840Z,100174.78
2023-01-13T09:53:18.825Z,100159.00
2023-01-13T09:55:46.357Z,100171.31
2023-01-13T09:58:16.658Z,100170.97
2023-01-13T10:00:47.429Z,100173.34
2023-01-13T10:03:22.996Z,100170.81
2023-01-13T10:05:57.279Z,100187.53
2023-01-13T10:08:27.512Z,100170.44
2023-01-13T10:10:57.260Z,100172.63
2023-01-13T10:13:25.290Z,100159.91
2023-01-13T10:16:00.724Z,100162.91
2023-01-13T10:18:38.223Z,100160.81
2023-01-13T10:21:16.209Z,100154.78
2023-01-13T10:23:52.432Z,100149.47
2023-01-13T10:26:30.678Z,100161.81
2023-01-13T10:28:58.698Z,100156.22
2023-01-13T10:31:27.057Z,100155.22
2023-01-13T10:34:00.515Z,100152.56
2023-01-13T10:37:14.420Z,100149.91
2023-01-13T10:39:43.980Z,100145.13
2023-01-13T10:42:14.817Z,100152.81
2023-01-13T10:44:50.102Z,100155.16
2023-01-13T10:47:22.767Z,100161.72
2023-01-13T10:50:02.620Z,100152.25
2023-01-13T10:52:31.946Z,100147.06
2023-01-13T10:55:00.944Z,100142.41
2023-01-13T10:57:29.006Z,100154.25
2023-01-13T10:59:56.747Z,100150.34
2023-01-13T11:02:30.548Z,100157.84
2023-01-13T11:05:11.894Z,100154.16
2023-01-13T11:07:41.442Z,100149.22
2023-01-13T11:10:20.111Z,100148.44
2023-01-13T11:12:53.465Z,100148.63
2023-01-13T11:15:23.420Z,100144.84
2023-01-13T11:18:00.385Z,100138.84
2023-01-13T11:20:33.721Z,100138.97
2023-01-13T11:23:05.250Z,100153.28
2023-01-13T11:25:42.064Z,100166.84
2023-01-13T11:28:20.615Z,100156.16
2023-01-13T11:30:51.236Z,100161.72
2023-01-13T11:33:30.602Z,100141.28
2023-01-13T11:36:05.818Z,100143.06
2023-01-13T11:38:39.143Z,100159.63
2023-01-13T11:41:11.849Z,100157.59
2023-01-13T11:43:44.121Z,100157.53
2023-01-13T11:46:11.634Z,100157.97
2023-01-13T11:48:42.122Z,100160.53
2023-01-13T11:51:19.467Z,100172.16
2023-01-13T11:54:09.611Z,100181.34
2023-01-13T11:56:46.706Z,100190.47
2023-01-13T11:59:30.102Z,100193.34
2023-01-13T12:02:08.208Z,100181.28
2023-01-13T12:04:43.852Z,100182.03
2023-01-13T12:07:20.730Z,100188.38
2023-01-13T12:10:03.451Z,100187.13
2023-01-13T12:12:40.708Z,100182.50
2023-01-13T12:15:33.192Z,100185.16
2023-01-13T12:18:16.573Z,100188.75
2023-01-13T12:20:51.343Z,100190.56
2023-01-13T12:23:25.625Z,100194.06
2023-01-13T12:25:55.896Z,100186.47
2023-01-13T12:28:26.213Z,100183.75
2023-01-13T12:30:56.237Z,100175.75
2023-01-13T12:33:29.119Z,100162.09
2023-01-13T12:36:00.875Z,100158.97
2023-01-13T12:38:36.185Z,100143.66
2023-01-13T12:41:11.713Z,100159.25
2023-01-13T12:43:59.265Z,100152.06
2023-01-13T12:46:50.381Z,100149.13
2023-01-13T12:49:24.046Z,100162.91
2023-01-13T12:52:14.505Z,100156.91
2023-01-13T12:55:21.304Z,100164.38
2023-01-13T12:57:57.668Z,100166.00
2023-01-13T13:00:25.600Z,100163.84
2023-01-13T13:03:30.098Z,100169.19
2023-01-13T13:06:00.512Z,100164.28
2023-01-13T13:08:47.981Z,100154.44
2023-01-13T13:12:00.248Z,100152.53
2023-01-13T13:15:03.722Z,100152.53
2023-01-13T13:17:45.406Z,100145.75
2023-01-13T13:20:53.742Z,100159.38
2023-01-13T13:23:40.027Z,100156.00
2023-01-13T13:26:19.865Z,100183.31
2023-01-13T13:28:57.561Z,100176.22
2023-01-13T13:31:34.038Z,100185.41
2023-01-13T13:34:11.761Z,100185.81
2023-01-13T13:36:51.451Z,100209.41
2023-01-13T13:39:40.207Z,100234.22
2023-01-13T13:42:31.541Z,100257.69
2023-01-13T13:45:18.766Z,100219.50
2023-01-13T13:47:46.374Z,100227.03
2023-01-13T13:50:15.728Z,100229.84
2023-01-13T13:52:45.774Z,100238.56
2023-01-13T13:55:18.620Z,100226.34
2023-01-13T13:57:47.533Z,100233.81
2023-01-13T14:00:24.887Z,100234.69
2023-01-13T14:02:54.390Z,100236.41
2023-01-13T14:05:23.980Z,100236.41
2023-01-13T14:07:52.878Z,100246.34
2023-01-13T14:10:22.638Z,100242.88
2023-01-13T14:12:50.130Z,100236.56
2023-01-13T14:15:32.542Z,100247.53
2023-01-13T14:18:01.925Z,100269.78
2023-01-13T14:20:29.963Z,100273.69
2023-01-13T14:23:01.287Z,100272.97
2023-01-13T14:25:31.495Z,100282.53
2023-01-13T14:28:01.006Z,100269.50
2023-01-13T14:30:30.125Z,100281.94
2023-01-13T14:32:57.986Z,100266.03
2023-01-13T14:35:25.467Z,100272.59
2023-01-13T14:38:02.346Z,100259.56
2023-01-13T14:40:46.659Z,100268.94
2023-01-13T14:43:16.177Z,100274.63
2023-01-13T14:45:56.678Z,100277.09
2023-01-13T14:48:30.823Z,100269.31
2023-01-13T14:50:58.338Z,100265.50
2023-01-13T14:53:29.062Z,100276.22
2023-01-13T14:55:56.572Z,100283.47
2023-01-13T14:58:26.021Z,100284.41
2023-01-13T15:01:29.927Z,100286.72
2023-01-13T15:04:18.301Z,100281.66
2023-01-13T15:06:49.724Z,100274.16
2023-01-13T15:09:22.276Z,100281.94
2023-01-13T15:11:49.902Z,100291.09
2023-01-13T15:14:23.143Z,100292.38
2023-01-13T15:16:51.950Z,100296.69
2023-01-13T15:19:19.414Z,100306.16
2023-01-13T15:21:46.891Z,100320.94
2023-01-13T15:24:14.376Z,100321.88
2023-01-13T15:26:41.929Z,100326.25
2023-01-13T15:29:13.414Z,100337.81
2023-01-13T15:31:40.859Z,100334.56
2023-01-13T15:34:09.677Z,100337.72
2023-01-13T15:36:37.823Z,100342.50
2023-01-13T15:39:05.400Z,100341.13
2023-01-13T15:41:50.355Z,100345.59
2023-01-13T15:44:35.730Z,100360.09
2023-01-13T15:47:05.473Z,100367.94
2023-01-13T15:49:36.549Z,100379.06
2023-01-13T15:52:05.137Z,100387.56
2023-01-13T15:54:32.626Z,100385.06
2023-01-13T15:57:00.096Z,100383.22
2023-01-13T15:59:28.464Z,100385.75
2023-01-13T16:01:55.976Z,100394.00
2023-01-13T16:04:23.432Z,100391.19
2023-01-13T16:06:52.212Z,100391.91
2023-01-13T16:09:19.846Z,100396.22
2023-01-13T16:11:47.306Z,100405.19
2023-01-13T16:14:14.759Z,100409.75
2023-01-13T16:16:42.268Z,100415.03
2023-01-13T16:19:11.841Z,100423.63
2023-01-13T16:21:40.306Z,100422.31
2023-01-13T16:24:09.157Z,100429.03
2023-01-13T16:26:38.718Z,100440.25
2023-01-13T16:29:07.178Z,100445.13
2023-01-13T16:31:35.399Z,100440.66
2023-01-13T16:34:04.280Z,100453.25
2023-01-13T16:36:34.592Z,100454.25
2023-01-13T16:39:02.788Z,100450.75
2023-01-13T16:41:31.617Z,100463.50
2023-01-13T16:44:05.747Z,100456.84
2023-01-13T16:46:33.314Z,100458.88
2023-01-13T16:49:04.563Z,100461.53
2023-01-13T16:51:33.096Z,100486.34
2023-01-13T16:54:00.554Z,100478.72
2023-01-13T16:56:30.486Z,100477.09
2023-01-13T16:59:02.420Z,100477.88
2023-01-13T17:01:31.615Z,100462.03
2023-01-13T17:03:59.730Z,100462.38
2023-01-13T17:06:32.839Z,100477.72
2023-01-13T17:09:05.481Z,100479.75
2023-01-13T17:11:33.393Z,100488.22
2023-01-13T17:14:15.856Z,100484.88
2023-01-13T17:16:46.327Z,100497.00
2023-01-13T17:19:14.393Z,100500.94
2023-01-13T17:21:42.262Z,100506.94
2023-01-13T17:24:12.300Z,100498.97
2023-01-13T17:26:43.727Z,100496.00
2023-01-13T17:29:14.638Z,100504.63
2023-01-13T17:31:42.543Z,100524.47
2023-01-13T17:34:11.415Z,100532.13
2023-01-13T17:36:39.061Z,100530.94
2023-01-13T17:39:06.847Z,100536.41
2023-01-13T17:41:34.301Z,100537.72
2023-01-13T17:44:01.786Z,100542.72
2023-01-13T17:46:30.561Z,100547.88
2023-01-13T17:48:58.045Z,100554.84
2023-01-13T17:51:25.940Z,100561.59
2023-01-13T17:53:54.106Z,100553.97
2023-01-13T17:56:21.650Z,100555.16
2023-01-13T17:58:49.148Z,100573.56
2023-01-13T18:01:18.423Z,100573.88
2023-01-13T18:03:47.485Z,100575.69
2023-01-13T18:06:17.674Z,100572.03
2023-01-13T18:08:45.662Z,100578.53
2023-01-13T18:11:13.822Z,100576.38
2023-01-13T18:13:42.720Z,100581.84
2023-01-13T18:16:11.779Z,100579.34
2023-01-13T18:18:40.001Z,100576.53
2023-01-13T18:21:32.269Z,100576.84
2023-01-13T18:24:17.615Z,100583.47
2023-01-13T18:27:03.075Z,100589.44
2023-01-13T18:29:30.715Z,100603.34
2023-01-13T18:31:58.306Z,100598.03
2023-01-13T18:34:25.922Z,100596.53
2023-01-13T18:36:54.867Z,100603.00
2023-01-13T18:39:22.514Z,100604.84
2023-01-13T18:42:07.810Z,100605.00
2023-01-13T18:44:38.869Z,100599.22
2023-01-13T18:47:06.651Z,100599.53
2023-01-13T18:49:34.258Z,100600.66
2023-01-13T18:52:03.099Z,100612.09
2023-01-13T18:54:30.609Z,100614.25
2023-01-13T18:56:58.176Z,100624.34
2023-01-13T18:59:26.057Z,100630.34
2023-01-13T19:01:53.540Z,100629.63
2023-01-13T19:04:21.173Z,100636.75
2023-01-13T19:06:51.402Z,100648.00
2023-01-13T19:09:24.477Z,100652.00
2023-01-13T19:11:52.661Z,100658.25
2023-01-13T19:14:34.799Z,100653.47
2023-01-13T19:17:02.789Z,100657.94
2023-01-13T19:19:30.312Z,100651.63
2023-01-13T19:21:57.757Z,100665.22
2023-01-13T19:24:26.873Z,100664.06
2023-01-13T19:26:54.477Z,100676.66
2023-01-13T19:29:21.978Z,100679.97
2023-01-13T19:31:49.538Z,100685.44
2023-01-13T19:34:17.514Z,100693.22
2023-01-13T19:36:45.052Z,100692.41
2023-01-13T19:39:12.732Z,100685.09
2023-01-13T19:41:58.873Z,100686.47
2023-01-13T19:44:44.137Z,100689.44
2023-01-13T19:47:11.563Z,100693.59
2023-01-13T19:49:39.160Z,100702.34
2023-01-13T19:52:06.610Z,100708.31
2023-01-13T19:54:34.062Z,100713.59
2023-01-13T19:57:02.886Z,100721.91
2023-01-13T19:59:30.336Z,100727.38
2023-01-13T20:01:58.068Z,100718.25
2023-01-13T20:04:33.622Z,100713.28
2023-01-13T20:07:01.133Z,100728.66
2023-01-13T20:09:28.606Z,100730.50
2023-01-13T20:11:56.098Z,100735.25
2023-01-13T20:14:25.604Z,100732.78
2023-01-13T20:16:53.101Z,100749.13
2023-01-13T20:19:20.603Z,100751.63
2023-01-13T20:21:48.062Z,100753.41
2023-01-13T20:24:17.937Z,100756.41
2023-01-13T20:26:45.929Z,100764.66
2023-01-13T20:29:13.936Z,100769.66
2023-01-13T20:31:42.788Z,100780.06
2023-01-13T20:34:10.362Z,100777.75
2023-01-13T20:36:38.922Z,100788.00
2023-01-13T20:39:08.365Z,100783.97
2023-01-13T20:41:53.471Z,100789.03
2023-01-13T20:44:20.952Z,100793.53
2023-01-13T20:46:49.800Z,100803.66
2023-01-13T20:49:17.275Z,100790.19
2023-01-13T20:51:44.777Z,100790.50
2023-01-13T20:54:12.247Z,100801.56
2023-01-13T20:56:40.448Z,100804.28
2023-01-13T20:59:08.437Z,100811.06
2023-01-13T21:01:36.337Z,100810.28
2023-01-13T21:04:06.791Z,100805.41
2023-01-13T21:06:34.996Z,100814.66
2023-01-13T21:09:02.453Z,100811.22
2023-01-13T21:11:47.891Z,100824.84
2023-01-13T21:14:34.832Z,100819.38
2023-01-13T21:17:02.510Z,100813.94
2023-01-13T21:19:30.601Z,100820.97
2023-01-13T21:21:58.140Z,100822.13
2023-01-13T21:24:26.247Z,100822.84
2023-01-13T21:26:56.748Z,100818.50
2023-01-13T21:29:24.292Z,100817.47
2023-01-13T21:31:53.932Z,100821.66
2023-01-13T21:34:21.523Z,100830.09
2023-01-13T21:36:50.436Z,100832.38
2023-01-13T21:39:17.995Z,100836.06
2023-01-13T21:42:03.121Z,100842.53
2023-01-13T21:44:48.648Z,100845.13
2023-01-13T21:47:35.141Z,100849.09
2023-01-13T21:50:03.823Z,100850.28
2023-01-13T21:52:32.716Z,100849.97
2023-01-13T21:55:17.178Z,100857.03
2023-01-13T21:57:46.333Z,100868.47
2023-01-13T22:00:14.790Z,100864.00
2023-01-13T22:02:42.550Z,100869.66
2023-01-13T22:05:11.583Z,100875.25
2023-01-13T22:07:40.847Z,100879.78
2023-01-13T22:10:10.844Z,100873.84
2023-01-13T22:12:38.402Z,100881.44
2023-01-13T22:15:07.152Z,100883.38
2023-01-13T22:17:34.770Z,100883.53
2023-01-13T22:20:02.339Z,100887.16
2023-01-13T22:22:34.912Z,100891.28
2023-01-13T22:25:04.603Z,100889.97
2023-01-13T22:27:32.146Z,100884.50
2023-01-13T22:29:59.807Z,100894.25
2023-01-13T22:32:27.364Z,100878.78
2023-01-13T22:34:54.887Z,100885.84
2023-01-13T22:37:24.393Z,100882.59
2023-01-13T22:39:51.967Z,100882.41
2023-01-13T22:42:20.974Z,100886.00
2023-01-13T22:44:48.515Z,100889.34
2023-01-13T22:47:16.038Z,100887.69
2023-01-13T22:49:47.495Z,100887.34
2023-01-13T22:52:15.086Z,100894.03
2023-01-13T22:54:42.744Z,100898.78
2023-01-13T22:57:10.574Z,100900.94
2023-01-13T22:59:40.795Z,100903.78
2023-01-13T23:02:08.398Z,100899.41
2023-01-13T23:04:36.118Z,100906.03
2023-01-13T23:07:05.480Z,100914.19
2023-01-13T23:09:33.202Z,100918.50
2023-01-13T23:12:00.768Z,100921.53
2023-01-13T23:14:28.396Z,100913.34
2023-01-13T23:16:57.345Z,100909.00
2023-01-13T23:19:24.963Z,100912.97
2023-01-13T23:21:52.620Z,100919.25
2023-01-13T23:24:20.568Z,100915.56
2023-01-13T23:26:48.067Z,100904.50
2023-01-13T23:29:15.647Z,100908.53
2023-01-13T23:31:43.294Z,100910.84
2023-01-13T23:34:13.241Z,100908.88
2023-01-13T23:36:43.214Z,100913.81
2023-01-13T23:39:10.813Z,100921.44
2023-01-13T23:41:38.365Z,100916.19
2023-01-13T23:44:06.822Z,100911.69
2023-01-13T23:46:35.299Z,100907.59
2023-01-13T23:49:04.145Z,100908.84
2023-01-13T23:51:33.329Z,100907.91
2023-01-13T23:54:01.161Z,100902.38
2023-01-13T23:56:30.259Z,100913.22
2023-01-13T23:58:58.217Z,100914.75
